sensor_id;sensor_type;location;lat;lon;timestamp;P1;durP1;ratioP1;P2;durP2;ratioP2
30147;SDS011;16960;49.404;8.248;2024-03-23T00:53:21;6.20;;;5.60;;
30147;SDS011;16960;49.404;8.248;2024-03-23T00:55:48;7.30;;;5.50;;
30147;SDS011;16960;49.404;8.248;2024-03-23T00:58:14;5.67;;;4.60;;
30147;SDS011;16960;49.404;8.248;2024-03-23T01:00:41;5.97;;;5.20;;
30147;SDS011;16960;49.404;8.248;2024-03-23T01:03:07;5.80;;;5.30;;
30147;SDS011;16960;49.404;8.248;2024-03-23T01:05:34;7.50;;;6.67;;
30147;SDS011;16960;49.404;8.248;2024-03-23T01:08:00;5.80;;;5.30;;
30147;SDS011;16960;49.404;8.248;2024-03-23T01:10:28;5.60;;;5.00;;
30147;SDS011;16960;49.404;8.248;2024-03-23T01:12:54;5.60;;;5.10;;
30147;SDS011;16960;49.404;8.248;2024-03-23T01:15:21;5.57;;;5.07;;
30147;SDS011;16960;49.404;8.248;2024-03-23T01:17:47;5.53;;;5.03;;
30147;SDS011;16960;49.404;8.248;2024-03-23T01:20:14;5.37;;;4.87;;
30147;SDS011;16960;49.404;8.248;2024-03-23T01:22:40;5.83;;;4.97;;
30147;SDS011;16960;49.404;8.248;2024-03-23T01:25:07;6.07;;;5.53;;
30147;SDS011;16960;49.404;8.248;2024-03-23T01:27:34;5.03;;;4.50;;
30147;SDS011;16960;49.404;8.248;2024-03-23T01:30:01;5.40;;;4.90;;
30147;SDS011;16960;49.404;8.248;2024-03-23T01:32:27;5.37;;;4.87;;
30147;SDS011;16960;49.404;8.248;2024-03-23T01:34:54;5.47;;;4.93;;
30147;SDS011;16960;49.404;8.248;2024-03-23T01:37:20;5.93;;;5.43;;
30147;SDS011;16960;49.404;8.248;2024-03-23T01:39:47;5.63;;;5.10;;
30147;SDS011;16960;49.404;8.248;2024-03-23T01:42:13;5.57;;;5.07;;
30147;SDS011;16960;49.404;8.248;2024-03-23T01:44:41;4.80;;;4.40;;
30147;SDS011;16960;49.404;8.248;2024-03-23T01:47:07;5.33;;;4.87;;
30147;SDS011;16960;49.404;8.248;2024-03-23T01:49:34;5.10;;;4.60;;
30147;SDS011;16960;49.404;8.248;2024-03-23T01:52:00;5.10;;;4.63;;
30147;SDS011;16960;49.404;8.248;2024-03-23T01:54:28;5.60;;;5.10;;
30147;SDS011;16960;49.404;8.248;2024-03-23T01:56:55;5.10;;;4.47;;
30147;SDS011;16960;49.404;8.248;2024-03-23T01:59:22;6.00;;;5.20;;
30147;SDS011;16960;49.404;8.248;2024-03-23T02:01:50;5.33;;;4.83;;
30147;SDS011;16960;49.404;8.248;2024-03-23T02:04:17;5.20;;;4.70;;
30147;SDS011;16960;49.404;8.248;2024-03-23T02:06:43;5.40;;;4.90;;
30147;SDS011;16960;49.404;8.248;2024-03-23T02:09:10;5.27;;;4.77;;
30147;SDS011;16960;49.404;8.248;2024-03-23T02:11:36;4.67;;;4.27;;
30147;SDS011;16960;49.404;8.248;2024-03-23T02:14:03;6.27;;;4.30;;
30147;SDS011;16960;49.404;8.248;2024-03-23T02:16:29;5.13;;;4.70;;
30147;SDS011;16960;49.404;8.248;2024-03-23T02:18:57;5.27;;;4.80;;
30147;SDS011;16960;49.404;8.248;2024-03-23T02:21:23;5.13;;;4.63;;
30147;SDS011;16960;49.404;8.248;2024-03-23T02:23:54;5.23;;;4.73;;
30147;SDS011;16960;49.404;8.248;2024-03-23T02:26:20;5.00;;;4.50;;
30147;SDS011;16960;49.404;8.248;2024-03-23T02:28:46;5.10;;;4.60;;
30147;SDS011;16960;49.404;8.248;2024-03-23T02:31:12;4.40;;;4.00;;
30147;SDS011;16960;49.404;8.248;2024-03-23T02:33:40;4.47;;;4.07;;
30147;SDS011;16960;49.404;8.248;2024-03-23T02:36:06;4.70;;;4.30;;
30147;SDS011;16960;49.404;8.248;2024-03-23T02:38:33;5.70;;;4.77;;
30147;SDS011;16960;49.404;8.248;2024-03-23T02:41:02;5.33;;;4.90;;
30147;SDS011;16960;49.404;8.248;2024-03-23T02:43:29;8.07;;;5.47;;
30147;SDS011;16960;49.404;8.248;2024-03-23T02:45:55;5.70;;;4.97;;
30147;SDS011;16960;49.404;8.248;2024-03-23T02:48:22;5.20;;;4.70;;
30147;SDS011;16960;49.404;8.248;2024-03-23T02:50:48;4.10;;;3.80;;
30147;SDS011;16960;49.404;8.248;2024-03-23T02:53:15;6.70;;;4.30;;
30147;SDS011;16960;49.404;8.248;2024-03-23T02:55:42;4.73;;;4.23;;
30147;SDS011;16960;49.404;8.248;2024-03-23T02:58:10;5.00;;;4.50;;
30147;SDS011;16960;49.404;8.248;2024-03-23T03:00:36;4.70;;;4.30;;
30147;SDS011;16960;49.404;8.248;2024-03-23T03:03:04;4.70;;;4.30;;
30147;SDS011;16960;49.404;8.248;2024-03-23T03:05:30;4.73;;;4.23;;
30147;SDS011;16960;49.404;8.248;2024-03-23T03:07:56;4.97;;;4.47;;
30147;SDS011;16960;49.404;8.248;2024-03-23T03:10:22;4.50;;;4.10;;
30147;SDS011;16960;49.404;8.248;2024-03-23T03:12:49;4.90;;;4.50;;
30147;SDS011;16960;49.404;8.248;2024-03-23T03:15:17;5.27;;;4.80;;
30147;SDS011;16960;49.404;8.248;2024-03-23T03:17:44;5.27;;;4.77;;
30147;SDS011;16960;49.404;8.248;2024-03-23T03:20:10;4.90;;;4.27;;
30147;SDS011;16960;49.404;8.248;2024-03-23T03:22:38;5.73;;;4.80;;
30147;SDS011;16960;49.404;8.248;2024-03-23T03:25:05;5.17;;;4.67;;
30147;SDS011;16960;49.404;8.248;2024-03-23T03:27:32;5.63;;;4.97;;
30147;SDS011;16960;49.404;8.248;2024-03-23T03:29:59;4.87;;;4.47;;
30147;SDS011;16960;49.404;8.248;2024-03-23T03:32:29;4.90;;;4.40;;
30147;SDS011;16960;49.404;8.248;2024-03-23T03:34:55;4.90;;;4.40;;
30147;SDS011;16960;49.404;8.248;2024-03-23T03:37:22;6.00;;;4.83;;
30147;SDS011;16960;49.404;8.248;2024-03-23T03:39:47;5.73;;;5.10;;
30147;SDS011;16960;49.404;8.248;2024-03-23T03:42:14;5.47;;;4.87;;
30147;SDS011;16960;49.404;8.248;2024-03-23T03:44:40;5.40;;;4.90;;
30147;SDS011;16960;49.404;8.248;2024-03-23T03:47:07;5.70;;;5.10;;
30147;SDS011;16960;49.404;8.248;2024-03-23T03:49:34;5.07;;;4.63;;
30147;SDS011;16960;49.404;8.248;2024-03-23T03:52:01;5.40;;;4.90;;
30147;SDS011;16960;49.404;8.248;2024-03-23T03:54:27;5.00;;;4.50;;
30147;SDS011;16960;49.404;8.248;2024-03-23T03:56:54;5.13;;;4.53;;
30147;SDS011;16960;49.404;8.248;2024-03-23T03:59:20;5.30;;;4.80;;
30147;SDS011;16960;49.404;8.248;2024-03-23T04:01:47;4.83;;;4.43;;
30147;SDS011;16960;49.404;8.248;2024-03-23T04:04:14;6.17;;;5.17;;
30147;SDS011;16960;49.404;8.248;2024-03-23T04:06:43;4.50;;;4.10;;
30147;SDS011;16960;49.404;8.248;2024-03-23T04:09:10;4.87;;;4.37;;
30147;SDS011;16960;49.404;8.248;2024-03-23T04:11:35;4.33;;;3.93;;
30147;SDS011;16960;49.404;8.248;2024-03-23T04:14:02;4.70;;;4.30;;
30147;SDS011;16960;49.404;8.248;2024-03-23T04:16:29;4.43;;;4.03;;
30147;SDS011;16960;49.404;8.248;2024-03-23T04:18:57;4.30;;;3.90;;
30147;SDS011;16960;49.404;8.248;2024-03-23T04:21:24;4.07;;;3.67;;
30147;SDS011;16960;49.404;8.248;2024-03-23T04:23:52;5.10;;;4.60;;
30147;SDS011;16960;49.404;8.248;2024-03-23T04:26:18;4.83;;;4.33;;
30147;SDS011;16960;49.404;8.248;2024-03-23T04:28:45;5.33;;;4.80;;
30147;SDS011;16960;49.404;8.248;2024-03-23T04:31:11;5.30;;;4.80;;
30147;SDS011;16960;49.404;8.248;2024-03-23T04:33:38;4.60;;;4.20;;
30147;SDS011;16960;49.404;8.248;2024-03-23T04:36:04;5.23;;;4.73;;
30147;SDS011;16960;49.404;8.248;2024-03-23T04:38:32;4.20;;;3.80;;
30147;SDS011;16960;49.404;8.248;2024-03-23T04:41:00;3.83;;;3.53;;
30147;SDS011;16960;49.404;8.248;2024-03-23T04:43:27;4.27;;;3.87;;
30147;SDS011;16960;49.404;8.248;2024-03-23T04:45:54;4.17;;;3.77;;
30147;SDS011;16960;49.404;8.248;2024-03-23T04:48:22;3.97;;;3.67;;
30147;SDS011;16960;49.404;8.248;2024-03-23T04:50:49;4.57;;;4.00;;
30147;SDS011;16960;49.404;8.248;2024-03-23T04:53:22;3.30;;;3.00;;
30147;SDS011;16960;49.404;8.248;2024-03-23T04:55:56;3.00;;;2.70;;
30147;SDS011;16960;49.404;8.248;2024-03-23T04:58:29;3.47;;;3.17;;
30147;SDS011;16960;49.404;8.248;2024-03-23T05:00:55;3.20;;;2.90;;
30147;SDS011;16960;49.404;8.248;2024-03-23T05:03:23;2.70;;;2.27;;
30147;SDS011;16960;49.404;8.248;2024-03-23T05:05:49;2.53;;;2.30;;
30147;SDS011;16960;49.404;8.248;2024-03-23T05:08:16;2.60;;;2.40;;
30147;SDS011;16960;49.404;8.248;2024-03-23T05:10:42;2.20;;;2.00;;
30147;SDS011;16960;49.404;8.248;2024-03-23T05:13:11;2.63;;;2.00;;
30147;SDS011;16960;49.404;8.248;2024-03-23T05:15:37;2.30;;;2.10;;
30147;SDS011;16960;49.404;8.248;2024-03-23T05:18:04;2.30;;;2.10;;
30147;SDS011;16960;49.404;8.248;2024-03-23T05:20:31;1.77;;;1.67;;
30147;SDS011;16960;49.404;8.248;2024-03-23T05:22:58;2.03;;;1.83;;
30147;SDS011;16960;49.404;8.248;2024-03-23T05:25:24;2.50;;;2.27;;
30147;SDS011;16960;49.404;8.248;2024-03-23T05:27:50;1.93;;;1.70;;
30147;SDS011;16960;49.404;8.248;2024-03-23T05:30:18;2.13;;;1.93;;
30147;SDS011;16960;49.404;8.248;2024-03-23T05:32:45;1.80;;;1.70;;
30147;SDS011;16960;49.404;8.248;2024-03-23T05:35:10;2.23;;;2.00;;
30147;SDS011;16960;49.404;8.248;2024-03-23T05:37:38;2.60;;;1.93;;
30147;SDS011;16960;49.404;8.248;2024-03-23T05:40:04;1.70;;;1.60;;
30147;SDS011;16960;49.404;8.248;2024-03-23T05:42:33;2.03;;;1.83;;
30147;SDS011;16960;49.404;8.248;2024-03-23T05:44:59;2.00;;;1.90;;
30147;SDS011;16960;49.404;8.248;2024-03-23T05:47:27;1.80;;;1.70;;
30147;SDS011;16960;49.404;8.248;2024-03-23T05:49:54;1.50;;;1.40;;
30147;SDS011;16960;49.404;8.248;2024-03-23T05:52:20;1.90;;;1.80;;
30147;SDS011;16960;49.404;8.248;2024-03-23T05:54:47;1.60;;;1.50;;
30147;SDS011;16960;49.404;8.248;2024-03-23T05:57:13;1.70;;;1.60;;
30147;SDS011;16960;49.404;8.248;2024-03-23T05:59:39;2.10;;;1.90;;
30147;SDS011;16960;49.404;8.248;2024-03-23T06:02:06;1.80;;;1.47;;
30147;SDS011;16960;49.404;8.248;2024-03-23T06:04:34;1.50;;;1.40;;
30147;SDS011;16960;49.404;8.248;2024-03-23T06:07:01;1.57;;;1.47;;
30147;SDS011;16960;49.404;8.248;2024-03-23T06:09:27;1.50;;;1.40;;
30147;SDS011;16960;49.404;8.248;2024-03-23T06:11:56;1.70;;;1.43;;
30147;SDS011;16960;49.404;8.248;2024-03-23T06:14:22;1.67;;;1.57;;
30147;SDS011;16960;49.404;8.248;2024-03-23T06:16:49;1.70;;;1.60;;
30147;SDS011;16960;49.404;8.248;2024-03-23T06:19:15;1.40;;;1.30;;
30147;SDS011;16960;49.404;8.248;2024-03-23T06:21:44;1.70;;;1.60;;
30147;SDS011;16960;49.404;8.248;2024-03-23T06:24:10;1.97;;;1.60;;
30147;SDS011;16960;49.404;8.248;2024-03-23T06:26:37;1.40;;;1.30;;
30147;SDS011;16960;49.404;8.248;2024-03-23T06:29:03;1.53;;;1.43;;
30147;SDS011;16960;49.404;8.248;2024-03-23T06:31:31;1.63;;;1.50;;
30147;SDS011;16960;49.404;8.248;2024-03-23T06:33:57;1.80;;;1.70;;
30147;SDS011;16960;49.404;8.248;2024-03-23T06:36:24;2.17;;;1.40;;
30147;SDS011;16960;49.404;8.248;2024-03-23T06:38:51;1.80;;;1.40;;
30147;SDS011;16960;49.404;8.248;2024-03-23T06:41:18;1.40;;;1.30;;
30147;SDS011;16960;49.404;8.248;2024-03-23T06:43:44;1.40;;;1.30;;
30147;SDS011;16960;49.404;8.248;2024-03-23T06:46:11;1.77;;;1.20;;
30147;SDS011;16960;49.404;8.248;2024-03-23T06:48:37;1.37;;;1.20;;
30147;SDS011;16960;49.404;8.248;2024-03-23T06:51:04;1.03;;;0.93;;
30147;SDS011;16960;49.404;8.248;2024-03-23T06:53:31;1.30;;;1.20;;
30147;SDS011;16960;49.404;8.248;2024-03-23T06:56:00;0.93;;;0.90;;
30147;SDS011;16960;49.404;8.248;2024-03-23T06:58:26;1.10;;;1.00;;
30147;SDS011;16960;49.404;8.248;2024-03-23T07:00:53;1.33;;;1.23;;
30147;SDS011;16960;49.404;8.248;2024-03-23T07:03:19;1.17;;;1.07;;
30147;SDS011;16960;49.404;8.248;2024-03-23T07:05:47;1.10;;;1.00;;
30147;SDS011;16960;49.404;8.248;2024-03-23T07:08:13;1.40;;;1.30;;
30147;SDS011;16960;49.404;8.248;2024-03-23T07:10:43;1.50;;;1.40;;
30147;SDS011;16960;49.404;8.248;2024-03-23T07:13:11;1.20;;;1.10;;
30147;SDS011;16960;49.404;8.248;2024-03-23T07:15:38;1.63;;;1.40;;
30147;SDS011;16960;49.404;8.248;2024-03-23T07:18:04;1.13;;;1.03;;
30147;SDS011;16960;49.404;8.248;2024-03-23T07:20:31;1.23;;;1.00;;
30147;SDS011;16960;49.404;8.248;2024-03-23T07:22:57;1.30;;;1.20;;
30147;SDS011;16960;49.404;8.248;2024-03-23T07:25:24;1.20;;;1.10;;
30147;SDS011;16960;49.404;8.248;2024-03-23T07:27:50;0.97;;;0.87;;
30147;SDS011;16960;49.404;8.248;2024-03-23T07:30:20;1.20;;;1.07;;
30147;SDS011;16960;49.404;8.248;2024-03-23T07:32:46;1.60;;;1.33;;
30147;SDS011;16960;49.404;8.248;2024-03-23T07:35:13;1.07;;;0.97;;
30147;SDS011;16960;49.404;8.248;2024-03-23T07:37:39;1.30;;;1.17;;
30147;SDS011;16960;49.404;8.248;2024-03-23T07:40:07;1.20;;;0.90;;
30147;SDS011;16960;49.404;8.248;2024-03-23T07:42:34;1.30;;;1.13;;
30147;SDS011;16960;49.404;8.248;2024-03-23T07:45:01;0.80;;;0.80;;
30147;SDS011;16960;49.404;8.248;2024-03-23T07:47:28;1.10;;;1.00;;
30147;SDS011;16960;49.404;8.248;2024-03-23T07:49:55;1.20;;;1.10;;
30147;SDS011;16960;49.404;8.248;2024-03-23T07:52:21;1.40;;;1.10;;
30147;SDS011;16960;49.404;8.248;2024-03-23T07:54:48;1.33;;;1.23;;
30147;SDS011;16960;49.404;8.248;2024-03-23T07:57:14;1.70;;;1.00;;
30147;SDS011;16960;49.404;8.248;2024-03-23T07:59:41;1.40;;;0.90;;
30147;SDS011;16960;49.404;8.248;2024-03-23T08:02:07;1.17;;;0.93;;
30147;SDS011;16960;49.404;8.248;2024-03-23T08:04:35;0.83;;;0.70;;
30147;SDS011;16960;49.404;8.248;2024-03-23T08:07:01;1.50;;;1.10;;
30147;SDS011;16960;49.404;8.248;2024-03-23T08:09:28;1.47;;;1.30;;
30147;SDS011;16960;49.404;8.248;2024-03-23T08:11:55;1.40;;;1.10;;
30147;SDS011;16960;49.404;8.248;2024-03-23T08:14:21;1.00;;;0.90;;
30147;SDS011;16960;49.404;8.248;2024-03-23T08:16:48;3.43;;;0.80;;
30147;SDS011;16960;49.404;8.248;2024-03-23T08:19:16;2.90;;;1.17;;
30147;SDS011;16960;49.404;8.248;2024-03-23T08:21:44;6.20;;;1.23;;
30147;SDS011;16960;49.404;8.248;2024-03-23T08:24:10;1.67;;;0.80;;
30147;SDS011;16960;49.404;8.248;2024-03-23T08:26:37;2.43;;;1.17;;
30147;SDS011;16960;49.404;8.248;2024-03-23T08:29:03;2.47;;;1.13;;
30147;SDS011;16960;49.404;8.248;2024-03-23T08:31:30;2.90;;;0.80;;
30147;SDS011;16960;49.404;8.248;2024-03-23T08:33:56;2.13;;;1.03;;
30147;SDS011;16960;49.404;8.248;2024-03-23T08:36:23;1.90;;;1.20;;
30147;SDS011;16960;49.404;8.248;2024-03-23T08:38:50;3.20;;;0.90;;
30147;SDS011;16960;49.404;8.248;2024-03-23T08:41:18;1.47;;;1.10;;
30147;SDS011;16960;49.404;8.248;2024-03-23T08:43:44;2.60;;;1.20;;
30147;SDS011;16960;49.404;8.248;2024-03-23T08:46:12;1.67;;;1.00;;
30147;SDS011;16960;49.404;8.248;2024-03-23T08:48:39;1.77;;;1.13;;
30147;SDS011;16960;49.404;8.248;2024-03-23T08:51:08;3.70;;;1.20;;
30147;SDS011;16960;49.404;8.248;2024-03-23T08:53:35;1.37;;;1.17;;
30147;SDS011;16960;49.404;8.248;2024-03-23T08:56:05;1.23;;;0.73;;
30147;SDS011;16960;49.404;8.248;2024-03-23T08:58:33;1.40;;;1.07;;
30147;SDS011;16960;49.404;8.248;2024-03-23T09:01:03;1.40;;;1.20;;
30147;SDS011;16960;49.404;8.248;2024-03-23T09:03:31;3.37;;;1.43;;
30147;SDS011;16960;49.404;8.248;2024-03-23T09:05:57;1.00;;;0.83;;
30147;SDS011;16960;49.404;8.248;2024-03-23T09:08:24;1.63;;;1.13;;
30147;SDS011;16960;49.404;8.248;2024-03-23T09:10:51;2.77;;;1.20;;
30147;SDS011;16960;49.404;8.248;2024-03-23T09:13:19;1.70;;;1.20;;
30147;SDS011;16960;49.404;8.248;2024-03-23T09:15:46;2.50;;;1.13;;
30147;SDS011;16960;49.404;8.248;2024-03-23T09:18:13;1.53;;;1.00;;
30147;SDS011;16960;49.404;8.248;2024-03-23T09:20:40;1.70;;;1.30;;
30147;SDS011;16960;49.404;8.248;2024-03-23T09:23:06;3.67;;;1.30;;
30147;SDS011;16960;49.404;8.248;2024-03-23T09:25:35;1.30;;;1.20;;
30147;SDS011;16960;49.404;8.248;2024-03-23T09:28:03;1.70;;;1.20;;
30147;SDS011;16960;49.404;8.248;2024-03-23T09:30:31;1.77;;;0.93;;
30147;SDS011;16960;49.404;8.248;2024-03-23T09:32:58;1.10;;;0.97;;
30147;SDS011;16960;49.404;8.248;2024-03-23T09:35:24;1.57;;;0.80;;
30147;SDS011;16960;49.404;8.248;2024-03-23T09:37:51;2.70;;;0.97;;
30147;SDS011;16960;49.404;8.248;2024-03-23T09:40:17;2.30;;;1.27;;
30147;SDS011;16960;49.404;8.248;2024-03-23T09:42:56;1.23;;;1.13;;
30147;SDS011;16960;49.404;8.248;2024-03-23T09:45:26;1.47;;;1.00;;
30147;SDS011;16960;49.404;8.248;2024-03-23T09:47:55;2.00;;;0.90;;
30147;SDS011;16960;49.404;8.248;2024-03-23T09:50:21;2.23;;;1.27;;
30147;SDS011;16960;49.404;8.248;2024-03-23T09:52:49;1.70;;;1.10;;
30147;SDS011;16960;49.404;8.248;2024-03-23T09:55:15;1.17;;;1.07;;
30147;SDS011;16960;49.404;8.248;2024-03-23T09:57:42;2.13;;;0.93;;
30147;SDS011;16960;49.404;8.248;2024-03-23T10:00:08;1.60;;;1.00;;
30147;SDS011;16960;49.404;8.248;2024-03-23T10:02:37;1.43;;;1.13;;
30147;SDS011;16960;49.404;8.248;2024-03-23T10:05:05;1.70;;;1.20;;
30147;SDS011;16960;49.404;8.248;2024-03-23T10:07:47;1.90;;;1.03;;
30147;SDS011;16960;49.404;8.248;2024-03-23T10:10:13;3.93;;;1.33;;
30147;SDS011;16960;49.404;8.248;2024-03-23T10:12:43;2.23;;;1.10;;
30147;SDS011;16960;49.404;8.248;2024-03-23T10:15:13;4.60;;;1.33;;
30147;SDS011;16960;49.404;8.248;2024-03-23T10:17:44;3.80;;;1.10;;
30147;SDS011;16960;49.404;8.248;2024-03-23T10:20:11;1.97;;;1.23;;
30147;SDS011;16960;49.404;8.248;2024-03-23T10:22:39;2.93;;;1.10;;
30147;SDS011;16960;49.404;8.248;2024-03-23T10:25:08;1.93;;;1.40;;
30147;SDS011;16960;49.404;8.248;2024-03-23T10:27:35;3.77;;;1.33;;
30147;SDS011;16960;49.404;8.248;2024-03-23T10:30:09;2.40;;;1.07;;
30147;SDS011;16960;49.404;8.248;2024-03-23T10:32:35;3.70;;;1.10;;
30147;SDS011;16960;49.404;8.248;2024-03-23T10:35:17;1.93;;;1.30;;
30147;SDS011;16960;49.404;8.248;2024-03-23T10:37:44;3.17;;;1.30;;
30147;SDS011;16960;49.404;8.248;2024-03-23T10:40:12;2.43;;;1.50;;
30147;SDS011;16960;49.404;8.248;2024-03-23T10:42:38;1.10;;;0.73;;
30147;SDS011;16960;49.404;8.248;2024-03-23T10:45:06;3.57;;;1.10;;
30147;SDS011;16960;49.404;8.248;2024-03-23T10:47:34;2.30;;;1.03;;
30147;SDS011;16960;49.404;8.248;2024-03-23T10:50:02;2.30;;;0.97;;
30147;SDS011;16960;49.404;8.248;2024-03-23T10:52:31;2.43;;;1.23;;
30147;SDS011;16960;49.404;8.248;2024-03-23T10:54:59;1.90;;;0.97;;
30147;SDS011;16960;49.404;8.248;2024-03-23T10:57:29;1.47;;;0.93;;
30147;SDS011;16960;49.404;8.248;2024-03-23T11:00:01;1.30;;;1.00;;
30147;SDS011;16960;49.404;8.248;2024-03-23T11:02:28;1.37;;;0.90;;
30147;SDS011;16960;49.404;8.248;2024-03-23T11:04:55;2.27;;;1.37;;
30147;SDS011;16960;49.404;8.248;2024-03-23T11:07:31;5.53;;;1.07;;
30147;SDS011;16960;49.404;8.248;2024-03-23T11:09:59;1.50;;;1.10;;
30147;SDS011;16960;49.404;8.248;2024-03-23T11:12:26;2.83;;;1.00;;
30147;SDS011;16960;49.404;8.248;2024-03-23T11:14:56;3.00;;;1.30;;
30147;SDS011;16960;49.404;8.248;2024-03-23T11:17:25;1.90;;;1.20;;
30147;SDS011;16960;49.404;8.248;2024-03-23T11:19:52;1.43;;;0.93;;
30147;SDS011;16960;49.404;8.248;2024-03-23T11:25:16;1.23;;;0.90;;
30147;SDS011;16960;49.404;8.248;2024-03-23T11:27:52;2.57;;;0.87;;
30147;SDS011;16960;49.404;8.248;2024-03-23T11:30:23;1.20;;;0.90;;
30147;SDS011;16960;49.404;8.248;2024-03-23T11:32:50;1.50;;;1.00;;
30147;SDS011;16960;49.404;8.248;2024-03-23T11:35:25;0.90;;;0.73;;
30147;SDS011;16960;49.404;8.248;2024-03-23T11:38:03;3.77;;;1.33;;
30147;SDS011;16960;49.404;8.248;2024-03-23T11:40:34;1.73;;;1.20;;
30147;SDS011;16960;49.404;8.248;2024-03-23T11:43:01;3.13;;;0.90;;
30147;SDS011;16960;49.404;8.248;2024-03-23T11:45:29;1.53;;;0.90;;
30147;SDS011;16960;49.404;8.248;2024-03-23T11:48:07;1.23;;;1.00;;
30147;SDS011;16960;49.404;8.248;2024-03-23T11:50:36;1.57;;;1.00;;
30147;SDS011;16960;49.404;8.248;2024-03-23T11:53:11;1.47;;;0.90;;
30147;SDS011;16960;49.404;8.248;2024-03-23T11:55:42;1.37;;;0.87;;
30147;SDS011;16960;49.404;8.248;2024-03-23T11:58:12;1.63;;;0.90;;
30147;SDS011;16960;49.404;8.248;2024-03-23T12:00:40;1.97;;;1.20;;
30147;SDS011;16960;49.404;8.248;2024-03-23T12:03:06;1.00;;;0.80;;
30147;SDS011;16960;49.404;8.248;2024-03-23T12:05:33;1.57;;;1.17;;
30147;SDS011;16960;49.404;8.248;2024-03-23T12:08:16;1.97;;;0.90;;
30147;SDS011;16960;49.404;8.248;2024-03-23T12:10:49;1.73;;;1.00;;
30147;SDS011;16960;49.404;8.248;2024-03-23T12:13:16;2.23;;;0.90;;
30147;SDS011;16960;49.404;8.248;2024-03-23T12:15:44;1.73;;;0.83;;
30147;SDS011;16960;49.404;8.248;2024-03-23T12:18:11;6.10;;;1.27;;
30147;SDS011;16960;49.404;8.248;2024-03-23T12:20:38;1.57;;;0.90;;
30147;SDS011;16960;49.404;8.248;2024-03-23T12:23:05;3.80;;;1.13;;
30147;SDS011;16960;49.404;8.248;2024-03-23T12:25:34;1.10;;;1.00;;
30147;SDS011;16960;49.404;8.248;2024-03-23T12:28:00;1.80;;;0.87;;
30147;SDS011;16960;49.404;8.248;2024-03-23T12:30:27;1.00;;;0.90;;
30147;SDS011;16960;49.404;8.248;2024-03-23T12:32:53;1.40;;;1.07;;
30147;SDS011;16960;49.404;8.248;2024-03-23T12:35:20;1.77;;;1.10;;
30147;SDS011;16960;49.404;8.248;2024-03-23T12:37:46;2.60;;;1.30;;
30147;SDS011;16960;49.404;8.248;2024-03-23T12:40:14;1.50;;;1.07;;
30147;SDS011;16960;49.404;8.248;2024-03-23T12:42:41;1.20;;;0.83;;
30147;SDS011;16960;49.404;8.248;2024-03-23T12:45:08;2.10;;;1.00;;
30147;SDS011;16960;49.404;8.248;2024-03-23T12:47:34;2.27;;;0.70;;
30147;SDS011;16960;49.404;8.248;2024-03-23T12:50:01;1.97;;;0.80;;
30147;SDS011;16960;49.404;8.248;2024-03-23T12:52:28;0.90;;;0.60;;
30147;SDS011;16960;49.404;8.248;2024-03-23T12:54:55;1.93;;;1.00;;
30147;SDS011;16960;49.404;8.248;2024-03-23T12:57:21;3.30;;;0.93;;
30147;SDS011;16960;49.404;8.248;2024-03-23T12:59:51;1.10;;;0.70;;
30147;SDS011;16960;49.404;8.248;2024-03-23T13:02:18;1.80;;;0.80;;
30147;SDS011;16960;49.404;8.248;2024-03-23T13:04:46;1.17;;;0.73;;
30147;SDS011;16960;49.404;8.248;2024-03-23T13:07:14;1.63;;;1.53;;
30147;SDS011;16960;49.404;8.248;2024-03-23T13:09:41;0.60;;;0.60;;
30147;SDS011;16960;49.404;8.248;2024-03-23T13:12:07;1.17;;;0.70;;
30147;SDS011;16960;49.404;8.248;2024-03-23T13:14:34;1.50;;;0.60;;
30147;SDS011;16960;49.404;8.248;2024-03-23T13:17:02;2.60;;;0.53;;
30147;SDS011;16960;49.404;8.248;2024-03-23T13:19:29;0.90;;;0.50;;
30147;SDS011;16960;49.404;8.248;2024-03-23T13:21:56;0.93;;;0.73;;
30147;SDS011;16960;49.404;8.248;2024-03-23T13:24:23;0.60;;;0.40;;
30147;SDS011;16960;49.404;8.248;2024-03-23T13:26:50;1.50;;;0.60;;
30147;SDS011;16960;49.404;8.248;2024-03-23T13:29:17;1.13;;;0.63;;
30147;SDS011;16960;49.404;8.248;2024-03-23T13:31:43;1.00;;;0.50;;
30147;SDS011;16960;49.404;8.248;2024-03-23T13:34:12;1.27;;;0.60;;
30147;SDS011;16960;49.404;8.248;2024-03-23T13:36:40;2.30;;;0.50;;
30147;SDS011;16960;49.404;8.248;2024-03-23T13:39:06;1.93;;;0.70;;
30147;SDS011;16960;49.404;8.248;2024-03-23T13:41:36;1.73;;;0.50;;
30147;SDS011;16960;49.404;8.248;2024-03-23T13:44:04;0.70;;;0.50;;
30147;SDS011;16960;49.404;8.248;2024-03-23T13:46:30;1.20;;;0.50;;
30147;SDS011;16960;49.404;8.248;2024-03-23T13:48:57;5.80;;;0.70;;
30147;SDS011;16960;49.404;8.248;2024-03-23T13:51:25;1.20;;;0.70;;
30147;SDS011;16960;49.404;8.248;2024-03-23T13:53:53;1.00;;;0.77;;
30147;SDS011;16960;49.404;8.248;2024-03-23T13:56:19;0.90;;;0.40;;
30147;SDS011;16960;49.404;8.248;2024-03-23T13:58:46;1.20;;;0.63;;
30147;SDS011;16960;49.404;8.248;2024-03-23T14:01:15;1.10;;;0.70;;
30147;SDS011;16960;49.404;8.248;2024-03-23T14:03:42;1.30;;;0.80;;
30147;SDS011;16960;49.404;8.248;2024-03-23T14:06:09;0.90;;;0.50;;
30147;SDS011;16960;49.404;8.248;2024-03-23T14:08:38;0.97;;;0.50;;
30147;SDS011;16960;49.404;8.248;2024-03-23T14:11:04;1.00;;;0.83;;
30147;SDS011;16960;49.404;8.248;2024-03-23T14:13:31;0.97;;;0.60;;
30147;SDS011;16960;49.404;8.248;2024-03-23T14:15:58;0.93;;;0.60;;
30147;SDS011;16960;49.404;8.248;2024-03-23T14:18:25;2.40;;;0.70;;
30147;SDS011;16960;49.404;8.248;2024-03-23T14:20:51;1.33;;;0.57;;
30147;SDS011;16960;49.404;8.248;2024-03-23T14:23:19;1.20;;;0.80;;
30147;SDS011;16960;49.404;8.248;2024-03-23T14:25:46;1.27;;;0.60;;
30147;SDS011;16960;49.404;8.248;2024-03-23T14:28:14;1.50;;;0.70;;
30147;SDS011;16960;49.404;8.248;2024-03-23T14:30:40;0.80;;;0.53;;
30147;SDS011;16960;49.404;8.248;2024-03-23T14:33:08;1.10;;;0.40;;
30147;SDS011;16960;49.404;8.248;2024-03-23T14:35:34;1.00;;;0.43;;
30147;SDS011;16960;49.404;8.248;2024-03-23T14:38:01;0.93;;;0.60;;
30147;SDS011;16960;49.404;8.248;2024-03-23T14:40:27;1.23;;;0.63;;
30147;SDS011;16960;49.404;8.248;2024-03-23T14:42:55;1.27;;;0.60;;
30147;SDS011;16960;49.404;8.248;2024-03-23T14:45:21;1.17;;;0.60;;
30147;SDS011;16960;49.404;8.248;2024-03-23T14:47:49;0.90;;;0.60;;
30147;SDS011;16960;49.404;8.248;2024-03-23T14:50:15;0.60;;;0.50;;
30147;SDS011;16960;49.404;8.248;2024-03-23T14:52:43;1.13;;;0.60;;
30147;SDS011;16960;49.404;8.248;2024-03-23T14:55:10;1.73;;;0.77;;
30147;SDS011;16960;49.404;8.248;2024-03-23T14:57:37;1.03;;;0.40;;
30147;SDS011;16960;49.404;8.248;2024-03-23T15:00:08;0.90;;;0.60;;
30147;SDS011;16960;49.404;8.248;2024-03-23T15:02:37;0.67;;;0.43;;
30147;SDS011;16960;49.404;8.248;2024-03-23T15:05:03;1.70;;;0.70;;
30147;SDS011;16960;49.404;8.248;2024-03-23T15:07:34;0.80;;;0.50;;
30147;SDS011;16960;49.404;8.248;2024-03-23T15:10:00;1.00;;;0.47;;
30147;SDS011;16960;49.404;8.248;2024-03-23T15:12:27;1.20;;;0.57;;
30147;SDS011;16960;49.404;8.248;2024-03-23T15:14:53;1.20;;;0.63;;
30147;SDS011;16960;49.404;8.248;2024-03-23T15:17:21;1.00;;;0.70;;
30147;SDS011;16960;49.404;8.248;2024-03-23T15:19:47;0.70;;;0.57;;
30147;SDS011;16960;49.404;8.248;2024-03-23T15:22:14;0.90;;;0.50;;
30147;SDS011;16960;49.404;8.248;2024-03-23T15:24:40;0.73;;;0.50;;
30147;SDS011;16960;49.404;8.248;2024-03-23T15:27:07;1.03;;;0.50;;
30147;SDS011;16960;49.404;8.248;2024-03-23T15:29:34;1.27;;;0.50;;
30147;SDS011;16960;49.404;8.248;2024-03-23T15:32:01;0.90;;;0.60;;
30147;SDS011;16960;49.404;8.248;2024-03-23T15:34:29;0.70;;;0.60;;
30147;SDS011;16960;49.404;8.248;2024-03-23T15:36:56;2.20;;;0.77;;
30147;SDS011;16960;49.404;8.248;2024-03-23T15:39:22;2.60;;;0.60;;
30147;SDS011;16960;49.404;8.248;2024-03-23T15:41:49;2.90;;;0.60;;
30147;SDS011;16960;49.404;8.248;2024-03-23T15:44:15;0.87;;;0.53;;